sensor_id;sensor_type;location;lat;lon;timestamp;pressure;altitude;pressure_sealevel;temperature;humidity
62976;BME280;49071;0.000;0.000;2023-02-13T06:58:47;102991.44;;;16.65;35.20
62976;BME280;49071;0.000;0.000;2023-02-13T07:01:47;102989.69;;;16.66;35.31
62976;BME280;49071;0.000;0.000;2023-02-13T07:04:47;102995.78;;;16.74;35.15
62976;BME280;49071;0.000;0.000;2023-02-13T07:07:47;102994.88;;;16.86;35.18
62976;BME280;49071;0.000;0.000;2023-02-13T07:10:48;102994.75;;;17.03;34.91
62976;BME280;49071;0.000;0.000;2023-02-13T07:13:48;103002.50;;;17.21;34.76
62976;BME280;49071;0.000;0.000;2023-02-13T07:16:48;102994.50;;;17.39;34.51
62976;BME280;49071;0.000;0.000;2023-02-13T07:19:48;102999.63;;;17.55;34.66
62976;BME280;49071;0.000;0.000;2023-02-13T07:22:48;103007.38;;;17.76;34.35
62976;BME280;49071;0.000;0.000;2023-02-13T07:25:48;103006.34;;;17.91;34.22
62976;BME280;49071;0.000;0.000;2023-02-13T07:28:49;103006.19;;;18.05;33.95
62976;BME280;49071;0.000;0.000;2023-02-13T07:31:49;103002.56;;;18.18;33.73
62976;BME280;49071;0.000;0.000;2023-02-13T07:34:49;103010.31;;;18.29;33.76
62976;BME280;49071;0.000;0.000;2023-02-13T07:37:49;103014.66;;;18.34;33.64
62976;BME280;49071;0.000;0.000;2023-02-13T07:40:51;103010.31;;;18.30;34.02
62976;BME280;49071;0.000;0.000;2023-02-13T07:43:52;103015.56;;;18.30;33.71
62976;BME280;49071;0.000;0.000;2023-02-13T07:46:52;103017.28;;;18.36;34.26
62976;BME280;49071;0.000;0.000;2023-02-13T07:49:52;103024.16;;;18.46;33.64
62976;BME280;49071;0.000;0.000;2023-02-13T07:55:53;103035.31;;;18.65;33.70
62976;BME280;49071;0.000;0.000;2023-02-13T07:58:54;103040.50;;;18.74;33.90
62976;BME280;49071;0.000;0.000;2023-02-13T08:01:54;103026.44;;;18.77;33.73
62976;BME280;49071;0.000;0.000;2023-02-13T08:04:54;103024.56;;;18.85;33.51
62976;BME280;49071;0.000;0.000;2023-02-13T08:07:54;103028.03;;;18.88;33.46
62976;BME280;49071;0.000;0.000;2023-02-13T08:10:54;103031.47;;;18.94;33.34
62976;BME280;49071;0.000;0.000;2023-02-13T08:14:13;103035.75;;;19.01;33.42
62976;BME280;49071;0.000;0.000;2023-02-13T08:17:13;103036.50;;;19.09;33.02
62976;BME280;49071;0.000;0.000;2023-02-13T08:20:14;103047.81;;;19.17;33.15
62976;BME280;49071;0.000;0.000;2023-02-13T08:23:14;103040.69;;;19.24;33.30
62976;BME280;49071;0.000;0.000;2023-02-13T08:26:14;103037.91;;;19.34;33.29
62976;BME280;49071;0.000;0.000;2023-02-13T08:29:14;103034.41;;;19.34;33.02
62976;BME280;49071;0.000;0.000;2023-02-13T08:32:14;103029.19;;;19.31;33.18
62976;BME280;49071;0.000;0.000;2023-02-13T08:35:14;103032.81;;;19.24;33.01
62976;BME280;49071;0.000;0.000;2023-02-13T08:38:15;103026.75;;;19.17;33.28
62976;BME280;49071;0.000;0.000;2023-02-13T08:41:15;103026.81;;;19.13;33.08
62976;BME280;49071;0.000;0.000;2023-02-13T08:44:17;103030.47;;;19.04;33.41
62976;BME280;49071;0.000;0.000;2023-02-13T08:47:17;103022.66;;;18.96;33.47
62976;BME280;49071;0.000;0.000;2023-02-13T08:50:18;103030.69;;;18.87;33.76
62976;BME280;49071;0.000;0.000;2023-02-13T08:53:18;103033.41;;;18.79;33.73
62976;BME280;49071;0.000;0.000;2023-02-13T08:56:18;103038.75;;;18.70;33.60
62976;BME280;49071;0.000;0.000;2023-02-13T08:59:18;103042.31;;;18.64;33.58
62976;BME280;49071;0.000;0.000;2023-02-13T09:02:19;103042.38;;;18.61;33.71
62976;BME280;49071;0.000;0.000;2023-02-13T09:05:19;103052.91;;;18.60;33.96
62976;BME280;49071;0.000;0.000;2023-02-13T09:08:19;103048.53;;;18.59;34.04
62976;BME280;49071;0.000;0.000;2023-02-13T09:11:19;103052.03;;;18.58;33.97
62976;BME280;49071;0.000;0.000;2023-02-13T09:14:22;103046.75;;;18.59;33.88
62976;BME280;49071;0.000;0.000;2023-02-13T09:17:22;103051.97;;;18.62;33.96
62976;BME280;49071;0.000;0.000;2023-02-13T09:20:23;103049.31;;;18.67;33.58
62976;BME280;49071;0.000;0.000;2023-02-13T09:23:23;103051.91;;;18.73;33.83
62976;BME280;49071;0.000;0.000;2023-02-13T09:26:23;103057.97;;;18.80;33.79
62976;BME280;49071;0.000;0.000;2023-02-13T09:29:23;103046.44;;;18.88;33.66
62976;BME280;49071;0.000;0.000;2023-02-13T09:32:24;103045.47;;;18.97;33.46
62976;BME280;49071;0.000;0.000;2023-02-13T09:35:24;103049.69;;;19.07;33.47
62976;BME280;49071;0.000;0.000;2023-02-13T09:38:24;103040.75;;;19.19;33.07
62976;BME280;49071;0.000;0.000;2023-02-13T09:41:35;103041.53;;;19.27;32.96
62976;BME280;49071;0.000;0.000;2023-02-13T09:44:37;103044.94;;;19.32;33.33
62976;BME280;49071;0.000;0.000;2023-02-13T09:47:42;103049.28;;;19.35;32.76
62976;BME280;49071;0.000;0.000;2023-02-13T09:50:43;103038.78;;;19.33;33.22
62976;BME280;49071;0.000;0.000;2023-02-13T09:53:49;103039.75;;;19.26;32.85
62976;BME280;49071;0.000;0.000;2023-02-13T09:56:54;103042.47;;;19.22;32.86
62976;BME280;49071;0.000;0.000;2023-02-13T10:00:13;103047.81;;;19.17;33.10
62976;BME280;49071;0.000;0.000;2023-02-13T10:06:34;103058.53;;;19.02;33.19
62976;BME280;49071;0.000;0.000;2023-02-13T10:15:39;103047.44;;;18.78;33.59
62976;BME280;49071;0.000;0.000;2023-02-13T10:21:52;103036.22;;;18.62;33.89
62976;BME280;49071;0.000;0.000;2023-02-13T10:28:04;103033.75;;;18.49;33.91
62976;BME280;49071;0.000;0.000;2023-02-13T10:31:07;103036.41;;;18.46;34.04
62976;BME280;49071;0.000;0.000;2023-02-13T10:34:13;103029.44;;;18.43;34.12
62976;BME280;49071;0.000;0.000;2023-02-13T10:37:16;103030.28;;;18.45;34.18
62976;BME280;49071;0.000;0.000;2023-02-13T10:40:17;103025.88;;;18.49;34.16
62976;BME280;49071;0.000;0.000;2023-02-13T10:43:18;103021.47;;;18.51;34.16
62976;BME280;49071;0.000;0.000;2023-02-13T10:46:21;103012.66;;;18.56;34.21
62976;BME280;49071;0.000;0.000;2023-02-13T11:02:39;102998.09;;;18.99;33.36
62976;BME280;49071;0.000;0.000;2023-02-13T11:05:30;102996.09;;;19.15;33.60
62976;BME280;49071;0.000;0.000;2023-02-13T11:08:32;102996.84;;;19.24;33.55
62976;BME280;49071;0.000;0.000;2023-02-13T11:11:35;102996.72;;;19.32;33.36
62976;BME280;49071;0.000;0.000;2023-02-13T11:14:36;102999.28;;;19.35;33.00
62976;BME280;49071;0.000;0.000;2023-02-13T11:17:39;102992.31;;;19.34;33.44
62976;BME280;49071;0.000;0.000;2023-02-13T11:20:42;102990.59;;;19.31;33.22
62976;BME280;49071;0.000;0.000;2023-02-13T11:23:45;102984.47;;;19.29;32.98
62976;BME280;49071;0.000;0.000;2023-02-13T11:26:52;102987.19;;;19.23;33.16
62976;BME280;49071;0.000;0.000;2023-02-13T11:29:54;102989.03;;;19.17;33.38
62976;BME280;49071;0.000;0.000;2023-02-13T11:33:06;102987.34;;;19.14;33.36
62976;BME280;49071;0.000;0.000;2023-02-13T11:36:27;102983.97;;;19.04;33.54
62976;BME280;49071;0.000;0.000;2023-02-13T11:39:27;102974.44;;;18.97;33.56
62976;BME280;49071;0.000;0.000;2023-02-13T11:42:34;102978.06;;;18.90;33.53
62976;BME280;49071;0.000;0.000;2023-02-13T11:45:35;102978.16;;;18.82;33.47
62976;BME280;49071;0.000;0.000;2023-02-13T11:48:35;102974.72;;;18.76;33.87
62976;BME280;49071;0.000;0.000;2023-02-13T11:54:40;102977.56;;;18.59;33.96
62976;BME280;49071;0.000;0.000;2023-02-13T11:57:41;102974.97;;;18.56;34.12
62976;BME280;49071;0.000;0.000;2023-02-13T12:00:41;102980.28;;;18.53;34.02
62976;BME280;49071;0.000;0.000;2023-02-13T12:03:41;102976.75;;;18.54;34.15
62976;BME280;49071;0.000;0.000;2023-02-13T12:06:56;102975.84;;;18.55;33.88
62976;BME280;49071;0.000;0.000;2023-02-13T12:10:02;102973.19;;;18.58;34.11
62976;BME280;49071;0.000;0.000;2023-02-13T12:13:17;102968.75;;;18.63;34.07
62976;BME280;49071;0.000;0.000;2023-02-13T12:19:24;102972.09;;;18.76;33.95
62976;BME280;49071;0.000;0.000;2023-02-13T12:25:47;102966.66;;;18.90;33.94
62976;BME280;49071;0.000;0.000;2023-02-13T12:28:57;102968.25;;;19.01;33.39
62976;BME280;49071;0.000;0.000;2023-02-13T12:32:03;102959.31;;;19.11;33.57
62976;BME280;49071;0.000;0.000;2023-02-13T13:06:31;102959.66;;;18.88;33.62
62976;BME280;49071;0.000;0.000;2023-02-13T13:09:39;102963.28;;;18.81;33.78
62976;BME280;49071;0.000;0.000;2023-02-13T13:15:53;102969.56;;;18.68;33.96
62976;BME280;49071;0.000;0.000;2023-02-13T13:18:59;102965.28;;;18.61;33.75
62976;BME280;49071;0.000;0.000;2023-02-13T13:28:10;102966.22;;;18.57;33.95
62976;BME280;49071;0.000;0.000;2023-02-13T13:31:13;102960.00;;;18.61;34.07
62976;BME280;49071;0.000;0.000;2023-02-13T13:34:15;102953.78;;;18.68;34.22
62976;BME280;49071;0.000;0.000;2023-02-13T13:40:23;102951.94;;;18.78;33.69
62976;BME280;49071;0.000;0.000;2023-02-13T13:43:30;102953.63;;;18.83;34.06
62976;BME280;49071;0.000;0.000;2023-02-13T13:46:46;102956.03;;;18.96;33.80
62976;BME280;49071;0.000;0.000;2023-02-13T13:49:51;102950.69;;;19.02;33.82
62976;BME280;49071;0.000;0.000;2023-02-13T13:56:11;102959.19;;;19.19;33.68
62976;BME280;49071;0.000;0.000;2023-02-13T14:02:42;102934.50;;;19.26;33.12
62976;BME280;49071;0.000;0.000;2023-02-13T14:05:59;102931.00;;;19.26;33.54
62976;BME280;49071;0.000;0.000;2023-02-13T14:09:00;102939.00;;;19.20;33.36
62976;BME280;49071;0.000;0.000;2023-02-13T14:12:34;102927.66;;;19.18;33.21
62976;BME280;49071;0.000;0.000;2023-02-13T14:18:33;102906.81;;;19.05;33.43
62976;BME280;49071;0.000;0.000;2023-02-13T14:21:34;102916.53;;;19.00;33.34
62976;BME280;49071;0.000;0.000;2023-02-13T14:24:34;102906.97;;;18.95;33.46
62976;BME280;49071;0.000;0.000;2023-02-13T14:27:35;102903.56;;;18.88;33.54
62976;BME280;49071;0.000;0.000;2023-02-13T14:30:37;102892.28;;;18.81;33.77
62976;BME280;49071;0.000;0.000;2023-02-13T14:33:39;102900.25;;;18.75;33.83
62976;BME280;49071;0.000;0.000;2023-02-13T14:36:40;102897.72;;;18.68;33.90
62976;BME280;49071;0.000;0.000;2023-02-13T14:39:41;102891.69;;;18.61;34.24
62976;BME280;49071;0.000;0.000;2023-02-13T14:42:43;102879.47;;;18.57;33.89
62976;BME280;49071;0.000;0.000;2023-02-13T14:45:55;102876.81;;;18.58;34.17
62976;BME280;49071;0.000;0.000;2023-02-13T14:48:57;102877.63;;;18.62;34.17
62976;BME280;49071;0.000;0.000;2023-02-13T14:52:03;102881.94;;;18.68;33.88
62976;BME280;49071;0.000;0.000;2023-02-13T14:55:05;102883.56;;;18.76;33.83
62976;BME280;49071;0.000;0.000;2023-02-13T14:58:09;102877.34;;;18.83;33.74
62976;BME280;49071;0.000;0.000;2023-02-13T15:01:31;102886.88;;;18.91;33.94
62976;BME280;49071;0.000;0.000;2023-02-13T15:04:38;102883.22;;;18.99;33.85
62976;BME280;49071;0.000;0.000;2023-02-13T15:07:41;102876.09;;;19.07;33.43
62976;BME280;49071;0.000;0.000;2023-02-13T15:10:45;102870.78;;;19.10;33.62
62976;BME280;49071;0.000;0.000;2023-02-13T15:13:48;102871.56;;;19.16;33.40
62976;BME280;49071;0.000;0.000;2023-02-13T15:16:50;102875.91;;;19.17;33.23
62976;BME280;49071;0.000;0.000;2023-02-13T15:19:52;102868.94;;;19.16;33.46
62976;BME280;49071;0.000;0.000;2023-02-13T15:22:53;102869.78;;;19.16;33.19
62976;BME280;49071;0.000;0.000;2023-02-13T15:26:06;102883.00;;;19.13;33.77
62976;BME280;49071;0.000;0.000;2023-02-13T15:29:17;102885.63;;;19.13;33.36
62976;BME280;49071;0.000;0.000;2023-02-13T15:32:25;102894.59;;;19.01;33.83
62976;BME280;49071;0.000;0.000;2023-02-13T15:38:27;102888.69;;;18.87;33.93
62976;BME280;49071;0.000;0.000;2023-02-13T15:41:29;102887.88;;;18.83;34.23
62976;BME280;49071;0.000;0.000;2023-02-13T15:44:33;102896.66;;;18.81;33.97
62976;BME280;49071;0.000;0.000;2023-02-13T15:47:34;102897.66;;;18.72;34.71
62976;BME280;49071;0.000;0.000;2023-02-13T15:50:36;102882.84;;;18.65;34.28
62976;BME280;49071;0.000;0.000;2023-02-13T15:53:36;102881.13;;;18.62;34.47
62976;BME280;49071;0.000;0.000;2023-02-13T15:56:48;102896.94;;;18.59;35.01
62976;BME280;49071;0.000;0.000;2023-02-13T15:59:49;102894.31;;;18.61;34.84
62976;BME280;49071;0.000;0.000;2023-02-13T16:02:51;102892.50;;;18.64;34.99
62976;BME280;49071;0.000;0.000;2023-02-13T16:05:52;102893.31;;;18.70;35.04
62976;BME280;49071;0.000;0.000;2023-02-13T16:08:54;102883.63;;;18.75;35.08
62976;BME280;49071;0.000;0.000;2023-02-13T16:11:58;102877.38;;;18.82;35.07
62976;BME280;49071;0.000;0.000;2023-02-13T16:15:02;102880.78;;;18.88;35.01
62976;BME280;49071;0.000;0.000;2023-02-13T16:18:04;102872.75;;;18.98;34.72
62976;BME280;49071;0.000;0.000;2023-02-13T16:21:10;102870.06;;;19.01;34.80
62976;BME280;49071;0.000;0.000;2023-02-13T16:24:12;102872.47;;;19.15;36.44
62976;BME280;49071;0.000;0.000;2023-02-13T16:27:14;102860.03;;;19.24;35.99
62976;BME280;49071;0.000;0.000;2023-02-13T16:30:22;102863.53;;;19.23;35.41
62976;BME280;49071;0.000;0.000;2023-02-13T16:33:33;102865.19;;;19.29;35.46
62976;BME280;49071;0.000;0.000;2023-02-13T16:36:34;102866.03;;;19.31;35.35
62976;BME280;49071;0.000;0.000;2023-02-13T16:39:34;102867.72;;;19.33;35.42
62976;BME280;49071;0.000;0.000;2023-02-13T16:42:35;102869.47;;;19.34;35.26
62976;BME280;49071;0.000;0.000;2023-02-13T16:45:35;102883.59;;;19.30;35.63
62976;BME280;49071;0.000;0.000;2023-02-13T16:48:35;102894.19;;;19.26;35.47
62976;BME280;49071;0.000;0.000;2023-02-13T16:51:39;102899.53;;;19.20;35.80
62976;BME280;49071;0.000;0.000;2023-02-13T16:54:53;102897.91;;;19.14;35.89
62976;BME280;49071;0.000;0.000;2023-02-13T16:57:59;102892.75;;;19.08;36.13
62976;BME280;49071;0.000;0.000;2023-02-13T17:01:00;102894.56;;;19.03;36.10
62976;BME280;49071;0.000;0.000;2023-02-13T17:04:01;102896.41;;;18.98;36.30
62976;BME280;49071;0.000;0.000;2023-02-13T17:07:30;102900.91;;;18.91;35.80
62976;BME280;49071;0.000;0.000;2023-02-13T17:10:33;102908.00;;;18.84;35.89
62976;BME280;49071;0.000;0.000;2023-02-13T17:13:34;102901.94;;;18.79;36.16
62976;BME280;49071;0.000;0.000;2023-02-13T17:16:34;102906.41;;;18.74;36.48
62976;BME280;49071;0.000;0.000;2023-02-13T17:19:34;102912.66;;;18.64;36.29
62976;BME280;49071;0.000;0.000;2023-02-13T17:22:50;102911.06;;;18.54;36.02
62976;BME280;49071;0.000;0.000;2023-02-13T17:25:51;102911.09;;;18.51;36.34
62976;BME280;49071;0.000;0.000;2023-02-13T17:28:52;102920.78;;;18.46;36.41
62976;BME280;49071;0.000;0.000;2023-02-13T17:31:53;102925.16;;;18.45;36.41
62976;BME280;49071;0.000;0.000;2023-02-13T17:34:54;102919.00;;;18.48;36.96
62976;BME280;49071;0.000;0.000;2023-02-13T17:37:54;102918.06;;;18.52;36.83
62976;BME280;49071;0.000;0.000;2023-02-13T17:40:54;102928.50;;;18.58;36.81
62976;BME280;49071;0.000;0.000;2023-02-13T17:43:54;102924.94;;;18.62;36.35
62976;BME280;49071;0.000;0.000;2023-02-13T17:46:54;102924.00;;;18.68;36.34
62976;BME280;49071;0.000;0.000;2023-02-13T17:49:55;102922.16;;;18.76;36.10
62976;BME280;49071;0.000;0.000;2023-02-13T17:52:55;102924.72;;;18.80;36.26
62976;BME280;49071;0.000;0.000;2023-02-13T17:55:56;102927.25;;;18.88;35.95
62976;BME280;49071;0.000;0.000;2023-02-13T17:58:56;102921.88;;;18.94;36.03
62976;BME280;49071;0.000;0.000;2023-02-13T18:01:56;102924.34;;;19.05;35.73
62976;BME280;49071;0.000;0.000;2023-02-13T18:04:57;102920.72;;;19.14;35.97
62976;BME280;49071;0.000;0.000;2023-02-13T18:07:57;102917.97;;;19.20;35.43
62976;BME280;49071;0.000;0.000;2023-02-13T18:10:57;102918.00;;;19.18;35.75
62976;BME280;49071;0.000;0.000;2023-02-13T18:13:57;102923.13;;;19.27;35.43
62976;BME280;49071;0.000;0.000;2023-02-13T18:16:58;102923.97;;;19.28;35.52
62976;BME280;49071;0.000;0.000;2023-02-13T18:19:58;102922.22;;;19.27;35.67
62976;BME280;49071;0.000;0.000;2023-02-13T18:22:58;102918.81;;;19.20;35.63
62976;BME280;49071;0.000;0.000;2023-02-13T18:26:02;102925.88;;;19.18;35.77
62976;BME280;49071;0.000;0.000;2023-02-13T18:29:03;102930.34;;;19.15;35.64
62976;BME280;49071;0.000;0.000;2023-02-13T18:32:03;102925.09;;;19.13;35.70
62976;BME280;49071;0.000;0.000;2023-02-13T18:35:04;102919.00;;;19.11;35.67
62976;BME280;49071;0.000;0.000;2023-02-13T18:38:06;102912.97;;;19.04;36.02
62976;BME280;49071;0.000;0.000;2023-02-13T18:41:06;102906.03;;;18.99;36.05
62976;BME280;49071;0.000;0.000;2023-02-13T18:44:06;102912.19;;;18.96;36.12
62976;BME280;49071;0.000;0.000;2023-02-13T18:47:06;102913.19;;;18.89;36.08
62976;BME280;49071;0.000;0.000;2023-02-13T18:50:07;102914.19;;;18.82;36.18
62976;BME280;49071;0.000;0.000;2023-02-13T18:53:08;102909.00;;;18.77;36.22
62976;BME280;49071;0.000;0.000;2023-02-13T18:56:09;102901.16;;;18.71;36.36
62976;BME280;49071;0.000;0.000;2023-02-13T18:59:10;102904.72;;;18.67;36.44
62976;BME280;49071;0.000;0.000;2023-02-13T19:02:10;102903.00;;;18.64;36.72
62976;BME280;49071;0.000;0.000;2023-02-13T19:05:11;102903.09;;;18.60;36.65
62976;BME280;49071;0.000;0.000;2023-02-13T19:08:11;102903.16;;;18.54;36.48
62976;BME280;49071;0.000;0.000;2023-02-13T19:11:12;102900.66;;;18.46;36.78
62976;BME280;49071;0.000;0.000;2023-02-13T19:14:13;102907.69;;;18.44;36.67
62976;BME280;49071;0.000;0.000;2023-02-13T19:17:14;102902.47;;;18.41;36.81
62976;BME280;49071;0.000;0.000;2023-02-13T19:20:14;102908.66;;;18.35;36.80
62976;BME280;49071;0.000;0.000;2023-02-13T19:23:14;102906.06;;;18.32;37.11
62976;BME280;49071;0.000;0.000;2023-02-13T19:26:15;102910.44;;;18.32;37.22
62976;BME280;49071;0.000;0.000;2023-02-13T19:29:15;102911.28;;;18.35;37.25
62976;BME280;49071;0.000;0.000;2023-02-13T19:32:16;102910.38;;;18.39;37.11
62976;BME280;49071;0.000;0.000;2023-02-13T19:35:16;102917.28;;;18.45;37.07
62976;BME280;49071;0.000;0.000;2023-02-13T19:38:16;102919.81;;;18.54;37.27
62976;BME280;49071;0.000;0.000;2023-02-13T19:41:16;102921.44;;;18.61;37.27
62976;BME280;49071;0.000;0.000;2023-02-13T19:44:16;102940.63;;;18.68;37.07
62976;BME280;49071;0.000;0.000;2023-02-13T19:47:17;102934.47;;;18.72;36.86
62976;BME280;49071;0.000;0.000;2023-02-13T19:50:17;102947.44;;;18.84;36.73
62976;BME280;49071;0.000;0.000;2023-02-13T19:53:17;102949.91;;;18.97;36.48
62976;BME280;49071;0.000;0.000;2023-02-13T19:56:17;102947.13;;;19.07;36.22
62976;BME280;49071;0.000;0.000;2023-02-13T19:59:17;102952.16;;;19.21;36.15
62976;BME280;49071;0.000;0.000;2023-02-13T20:02:18;102952.94;;;19.28;36.13
62976;BME280;49071;0.000;0.000;2023-02-13T20:05:20;102958.13;;;19.31;36.11
62976;BME280;49071;0.000;0.000;2023-02-13T20:08:20;102958.13;;;19.31;36.17
62976;BME280;49071;0.000;0.000;2023-02-13T20:11:20;102959.91;;;19.29;35.79
62976;BME280;49071;0.000;0.000;2023-02-13T20:14:20;102962.63;;;19.24;36.10
62976;BME280;49071;0.000;0.000;2023-02-13T20:17:21;102962.63;;;19.24;36.14
62976;BME280;49071;0.000;0.000;2023-02-13T20:20:24;102967.94;;;19.21;35.90
62976;BME280;49071;0.000;0.000;2023-02-13T20:23:26;102980.28;;;19.16;36.09
62976;BME280;49071;0.000;0.000;2023-02-13T20:26:27;102984.72;;;19.13;35.93
62976;BME280;49071;0.000;0.000;2023-02-13T20:29:27;102983.06;;;19.07;35.98
62976;BME280;49071;0.000;0.000;2023-02-13T20:32:27;102984.84;;;19.03;36.09
62976;BME280;49071;0.000;0.000;2023-02-13T20:35:27;102988.47;;;18.96;36.02
62976;BME280;49071;0.000;0.000;2023-02-13T20:38:28;102989.41;;;18.92;36.26
62976;BME280;49071;0.000;0.000;2023-02-13T20:41:29;102989.53;;;18.84;36.37
62976;BME280;49071;0.000;0.000;2023-02-13T20:44:29;102993.97;;;18.79;36.53
62976;BME280;49071;0.000;0.000;2023-02-13T20:47:29;102994.03;;;18.75;36.70
62976;BME280;49071;0.000;0.000;2023-02-13T20:50:30;102997.56;;;18.71;36.23
62976;BME280;49071;0.000;0.000;2023-02-13T20:53:30;102999.41;;;18.62;36.25
62976;BME280;49071;0.000;0.000;2023-02-13T20:56:31;102999.53;;;18.52;36.51
62976;BME280;49071;0.000;0.000;2023-02-13T20:59:31;102992.63;;;18.45;36.76
62976;BME280;49071;0.000;0.000;2023-02-13T21:02:31;103003.22;;;18.38;36.45
62976;BME280;49071;0.000;0.000;2023-02-13T21:05:31;103004.09;;;18.37;36.63
62976;BME280;49071;0.000;0.000;2023-02-13T21:08:32;103009.31;;;18.39;36.22
62976;BME280;49071;0.000;0.000;2023-02-13T21:11:32;103004.97;;;18.39;36.75
62976;BME280;49071;0.000;0.000;2023-02-13T21:14:33;103011.06;;;18.43;36.39
62976;BME280;49071;0.000;0.000;2023-02-13T21:17:33;103014.47;;;18.48;36.64
62976;BME280;49071;0.000;0.000;2023-02-13T21:20:34;103018.84;;;18.49;36.14
